sensor_id;sensor_type;location;lat;lon;timestamp;P1;durP1;ratioP1;P2;durP2;ratioP2
16199;SDS011;8207;52.494;4.654;2022-12-29T00:01:25;4.17;;;2.53;;
16199;SDS011;8207;52.494;4.654;2022-12-29T00:03:52;2.80;;;2.10;;
16199;SDS011;8207;52.494;4.654;2022-12-29T00:06:21;5.07;;;2.33;;
16199;SDS011;8207;52.494;4.654;2022-12-29T00:08:48;6.37;;;2.50;;
16199;SDS011;8207;52.494;4.654;2022-12-29T00:11:16;4.00;;;1.80;;
16199;SDS011;8207;52.494;4.654;2022-12-29T00:13:45;3.27;;;1.73;;
16199;SDS011;8207;52.494;4.654;2022-12-29T00:16:30;3.00;;;1.60;;
16199;SDS011;8207;52.494;4.654;2022-12-29T00:18:59;4.77;;;2.07;;
16199;SDS011;8207;52.494;4.654;2022-12-29T00:21:28;3.87;;;1.70;;
16199;SDS011;8207;52.494;4.654;2022-12-29T00:24:13;3.27;;;2.10;;
16199;SDS011;8207;52.494;4.654;2022-12-29T00:27:07;3.23;;;1.70;;
16199;SDS011;8207;52.494;4.654;2022-12-29T00:29:54;5.40;;;1.70;;
16199;SDS011;8207;52.494;4.654;2022-12-29T00:32:38;3.07;;;1.73;;
16199;SDS011;8207;52.494;4.654;2022-12-29T00:35:23;3.23;;;2.47;;
16199;SDS011;8207;52.494;4.654;2022-12-29T00:37:56;2.77;;;1.87;;
16199;SDS011;8207;52.494;4.654;2022-12-29T00:40:44;2.77;;;2.30;;
16199;SDS011;8207;52.494;4.654;2022-12-29T00:43:28;5.27;;;2.63;;
16199;SDS011;8207;52.494;4.654;2022-12-29T00:46:12;3.77;;;2.50;;
16199;SDS011;8207;52.494;4.654;2022-12-29T00:48:39;3.40;;;2.33;;
16199;SDS011;8207;52.494;4.654;2022-12-29T00:51:24;4.23;;;2.03;;
16199;SDS011;8207;52.494;4.654;2022-12-29T00:53:53;3.70;;;2.50;;
16199;SDS011;8207;52.494;4.654;2022-12-29T00:56:20;3.83;;;2.33;;
16199;SDS011;8207;52.494;4.654;2022-12-29T00:58:47;3.10;;;2.27;;
16199;SDS011;8207;52.494;4.654;2022-12-29T01:01:14;5.20;;;2.10;;
16199;SDS011;8207;52.494;4.654;2022-12-29T01:03:41;3.30;;;2.10;;
16199;SDS011;8207;52.494;4.654;2022-12-29T01:06:10;2.30;;;1.63;;
16199;SDS011;8207;52.494;4.654;2022-12-29T01:08:37;3.57;;;2.00;;
16199;SDS011;8207;52.494;4.654;2022-12-29T01:11:06;3.10;;;1.50;;
16199;SDS011;8207;52.494;4.654;2022-12-29T01:13:33;2.70;;;2.03;;
16199;SDS011;8207;52.494;4.654;2022-12-29T01:16:02;2.50;;;1.87;;
16199;SDS011;8207;52.494;4.654;2022-12-29T01:18:29;5.77;;;1.67;;
16199;SDS011;8207;52.494;4.654;2022-12-29T01:20:59;3.67;;;1.80;;
16199;SDS011;8207;52.494;4.654;2022-12-29T01:23:27;6.00;;;2.00;;
16199;SDS011;8207;52.494;4.654;2022-12-29T01:25:54;4.77;;;2.00;;
16199;SDS011;8207;52.494;4.654;2022-12-29T01:28:23;6.13;;;2.00;;
16199;SDS011;8207;52.494;4.654;2022-12-29T01:30:50;5.50;;;2.23;;
16199;SDS011;8207;52.494;4.654;2022-12-29T01:33:17;5.13;;;2.20;;
16199;SDS011;8207;52.494;4.654;2022-12-29T01:35:44;7.33;;;2.40;;
16199;SDS011;8207;52.494;4.654;2022-12-29T01:38:11;6.10;;;2.13;;
16199;SDS011;8207;52.494;4.654;2022-12-29T01:40:44;5.83;;;2.43;;
16199;SDS011;8207;52.494;4.654;2022-12-29T01:43:12;9.60;;;2.43;;
16199;SDS011;8207;52.494;4.654;2022-12-29T01:45:44;14.70;;;3.53;;
16199;SDS011;8207;52.494;4.654;2022-12-29T01:48:13;12.43;;;2.70;;
16199;SDS011;8207;52.494;4.654;2022-12-29T01:50:42;11.87;;;2.80;;
16199;SDS011;8207;52.494;4.654;2022-12-29T01:53:15;11.00;;;2.83;;
16199;SDS011;8207;52.494;4.654;2022-12-29T01:55:44;13.43;;;2.63;;
16199;SDS011;8207;52.494;4.654;2022-12-29T01:58:16;12.23;;;2.67;;
16199;SDS011;8207;52.494;4.654;2022-12-29T02:00:47;15.90;;;3.77;;
16199;SDS011;8207;52.494;4.654;2022-12-29T02:03:14;14.83;;;2.53;;
16199;SDS011;8207;52.494;4.654;2022-12-29T02:05:43;12.03;;;3.17;;
16199;SDS011;8207;52.494;4.654;2022-12-29T02:08:14;10.90;;;2.40;;
16199;SDS011;8207;52.494;4.654;2022-12-29T02:10:42;16.47;;;3.53;;
16199;SDS011;8207;52.494;4.654;2022-12-29T02:13:10;15.27;;;3.30;;
16199;SDS011;8207;52.494;4.654;2022-12-29T02:15:41;19.80;;;3.90;;
16199;SDS011;8207;52.494;4.654;2022-12-29T02:18:22;19.97;;;3.27;;
16199;SDS011;8207;52.494;4.654;2022-12-29T02:24:12;19.13;;;3.50;;
16199;SDS011;8207;52.494;4.654;2022-12-29T02:30:07;15.53;;;3.50;;
16199;SDS011;8207;52.494;4.654;2022-12-29T02:32:46;20.53;;;3.50;;
16199;SDS011;8207;52.494;4.654;2022-12-29T02:35:20;17.60;;;4.07;;
16199;SDS011;8207;52.494;4.654;2022-12-29T02:37:58;11.47;;;3.03;;
16199;SDS011;8207;52.494;4.654;2022-12-29T02:40:31;20.13;;;3.30;;
16199;SDS011;8207;52.494;4.654;2022-12-29T02:43:04;14.47;;;3.10;;
16199;SDS011;8207;52.494;4.654;2022-12-29T02:45:41;14.07;;;3.27;;
16199;SDS011;8207;52.494;4.654;2022-12-29T02:48:16;16.90;;;3.43;;
16199;SDS011;8207;52.494;4.654;2022-12-29T02:50:48;17.53;;;4.00;;
16199;SDS011;8207;52.494;4.654;2022-12-29T02:53:20;18.77;;;4.40;;
16199;SDS011;8207;52.494;4.654;2022-12-29T02:56:03;19.80;;;3.80;;
16199;SDS011;8207;52.494;4.654;2022-12-29T02:58:30;23.80;;;4.77;;
16199;SDS011;8207;52.494;4.654;2022-12-29T03:01:02;19.77;;;4.70;;
16199;SDS011;8207;52.494;4.654;2022-12-29T03:03:47;21.80;;;4.30;;
16199;SDS011;8207;52.494;4.654;2022-12-29T03:06:27;22.70;;;4.13;;
16199;SDS011;8207;52.494;4.654;2022-12-29T03:09:03;24.03;;;4.43;;
16199;SDS011;8207;52.494;4.654;2022-12-29T03:11:38;24.40;;;5.07;;
16199;SDS011;8207;52.494;4.654;2022-12-29T03:14:31;26.40;;;5.37;;
16199;SDS011;8207;52.494;4.654;2022-12-29T03:17:20;27.63;;;5.57;;
16199;SDS011;8207;52.494;4.654;2022-12-29T03:19:55;27.27;;;5.27;;
16199;SDS011;8207;52.494;4.654;2022-12-29T03:22:28;25.27;;;5.63;;
16199;SDS011;8207;52.494;4.654;2022-12-29T03:24:59;25.70;;;4.87;;
16199;SDS011;8207;52.494;4.654;2022-12-29T03:27:30;24.60;;;5.13;;
16199;SDS011;8207;52.494;4.654;2022-12-29T03:30:03;25.33;;;5.20;;
16199;SDS011;8207;52.494;4.654;2022-12-29T03:32:34;26.03;;;5.10;;
16199;SDS011;8207;52.494;4.654;2022-12-29T03:35:07;20.93;;;4.70;;
16199;SDS011;8207;52.494;4.654;2022-12-29T03:37:37;20.43;;;5.03;;
16199;SDS011;8207;52.494;4.654;2022-12-29T03:40:08;23.37;;;5.63;;
16199;SDS011;8207;52.494;4.654;2022-12-29T03:42:35;26.73;;;5.07;;
16199;SDS011;8207;52.494;4.654;2022-12-29T03:45:05;29.60;;;6.47;;
16199;SDS011;8207;52.494;4.654;2022-12-29T03:47:33;32.83;;;6.33;;
16199;SDS011;8207;52.494;4.654;2022-12-29T03:50:00;25.47;;;5.57;;
16199;SDS011;8207;52.494;4.654;2022-12-29T03:52:29;34.47;;;7.07;;
16199;SDS011;8207;52.494;4.654;2022-12-29T03:54:55;27.87;;;6.83;;
16199;SDS011;8207;52.494;4.654;2022-12-29T03:57:22;27.70;;;5.70;;
16199;SDS011;8207;52.494;4.654;2022-12-29T03:59:49;28.50;;;6.07;;
16199;SDS011;8207;52.494;4.654;2022-12-29T04:02:16;27.03;;;5.53;;
16199;SDS011;8207;52.494;4.654;2022-12-29T04:04:43;26.23;;;4.80;;
16199;SDS011;8207;52.494;4.654;2022-12-29T04:07:10;32.33;;;5.70;;
16199;SDS011;8207;52.494;4.654;2022-12-29T04:09:38;20.50;;;4.00;;
16199;SDS011;8207;52.494;4.654;2022-12-29T04:12:05;21.40;;;5.20;;
16199;SDS011;8207;52.494;4.654;2022-12-29T04:14:32;27.97;;;4.77;;
16199;SDS011;8207;52.494;4.654;2022-12-29T04:16:59;19.50;;;4.70;;
16199;SDS011;8207;52.494;4.654;2022-12-29T04:19:26;19.40;;;4.37;;
16199;SDS011;8207;52.494;4.654;2022-12-29T04:21:53;20.93;;;5.00;;
16199;SDS011;8207;52.494;4.654;2022-12-29T04:24:20;27.17;;;5.00;;
16199;SDS011;8207;52.494;4.654;2022-12-29T04:26:48;24.90;;;4.77;;
16199;SDS011;8207;52.494;4.654;2022-12-29T04:29:15;14.70;;;4.33;;
16199;SDS011;8207;52.494;4.654;2022-12-29T04:31:42;23.67;;;4.43;;
16199;SDS011;8207;52.494;4.654;2022-12-29T04:34:09;19.70;;;4.47;;
16199;SDS011;8207;52.494;4.654;2022-12-29T04:36:36;28.30;;;4.87;;
16199;SDS011;8207;52.494;4.654;2022-12-29T04:39:04;23.23;;;5.80;;
16199;SDS011;8207;52.494;4.654;2022-12-29T04:41:31;21.27;;;5.30;;
16199;SDS011;8207;52.494;4.654;2022-12-29T04:44:00;25.37;;;5.27;;
16199;SDS011;8207;52.494;4.654;2022-12-29T04:46:27;24.73;;;4.67;;
16199;SDS011;8207;52.494;4.654;2022-12-29T04:48:54;29.30;;;6.67;;
16199;SDS011;8207;52.494;4.654;2022-12-29T04:51:21;31.70;;;6.07;;
16199;SDS011;8207;52.494;4.654;2022-12-29T04:53:48;31.47;;;6.97;;
16199;SDS011;8207;52.494;4.654;2022-12-29T04:56:15;22.73;;;4.90;;
16199;SDS011;8207;52.494;4.654;2022-12-29T04:58:41;32.03;;;5.73;;
16199;SDS011;8207;52.494;4.654;2022-12-29T05:01:10;30.30;;;7.73;;
16199;SDS011;8207;52.494;4.654;2022-12-29T05:03:37;25.83;;;6.87;;
16199;SDS011;8207;52.494;4.654;2022-12-29T05:06:04;28.73;;;5.80;;
16199;SDS011;8207;52.494;4.654;2022-12-29T05:08:31;23.23;;;5.23;;
16199;SDS011;8207;52.494;4.654;2022-12-29T05:10:57;23.83;;;6.10;;
16199;SDS011;8207;52.494;4.654;2022-12-29T05:13:24;27.93;;;7.23;;
16199;SDS011;8207;52.494;4.654;2022-12-29T05:15:51;30.73;;;5.93;;
16199;SDS011;8207;52.494;4.654;2022-12-29T05:18:20;30.47;;;6.77;;
16199;SDS011;8207;52.494;4.654;2022-12-29T05:20:48;29.97;;;6.10;;
16199;SDS011;8207;52.494;4.654;2022-12-29T05:23:14;23.73;;;5.00;;
16199;SDS011;8207;52.494;4.654;2022-12-29T05:25:42;31.13;;;5.83;;
16199;SDS011;8207;52.494;4.654;2022-12-29T05:28:10;25.70;;;5.40;;
16199;SDS011;8207;52.494;4.654;2022-12-29T05:30:38;25.40;;;5.77;;
16199;SDS011;8207;52.494;4.654;2022-12-29T05:33:05;27.17;;;7.10;;
16199;SDS011;8207;52.494;4.654;2022-12-29T05:35:34;22.57;;;5.00;;
16199;SDS011;8207;52.494;4.654;2022-12-29T05:38:00;28.07;;;6.23;;
16199;SDS011;8207;52.494;4.654;2022-12-29T05:40:27;28.17;;;6.00;;
16199;SDS011;8207;52.494;4.654;2022-12-29T05:42:54;32.83;;;6.07;;
16199;SDS011;8207;52.494;4.654;2022-12-29T05:45:21;23.97;;;5.03;;
16199;SDS011;8207;52.494;4.654;2022-12-29T05:47:48;31.27;;;5.90;;
16199;SDS011;8207;52.494;4.654;2022-12-29T05:50:15;25.07;;;6.33;;
16199;SDS011;8207;52.494;4.654;2022-12-29T05:52:43;28.17;;;6.00;;
16199;SDS011;8207;52.494;4.654;2022-12-29T05:55:10;31.23;;;6.30;;
16199;SDS011;8207;52.494;4.654;2022-12-29T05:57:38;33.70;;;6.60;;
16199;SDS011;8207;52.494;4.654;2022-12-29T06:00:05;30.43;;;5.73;;
16199;SDS011;8207;52.494;4.654;2022-12-29T06:02:33;36.53;;;7.53;;
16199;SDS011;8207;52.494;4.654;2022-12-29T06:05:00;31.07;;;8.07;;
16199;SDS011;8207;52.494;4.654;2022-12-29T06:07:27;30.03;;;7.67;;
16199;SDS011;8207;52.494;4.654;2022-12-29T06:09:55;43.60;;;7.23;;
16199;SDS011;8207;52.494;4.654;2022-12-29T06:12:22;31.20;;;6.17;;
16199;SDS011;8207;52.494;4.654;2022-12-29T06:14:49;37.27;;;6.00;;
16199;SDS011;8207;52.494;4.654;2022-12-29T06:17:16;35.57;;;8.40;;
16199;SDS011;8207;52.494;4.654;2022-12-29T06:19:43;28.67;;;7.33;;
16199;SDS011;8207;52.494;4.654;2022-12-29T06:22:10;31.90;;;6.73;;
16199;SDS011;8207;52.494;4.654;2022-12-29T06:24:38;28.10;;;6.87;;
16199;SDS011;8207;52.494;4.654;2022-12-29T06:27:07;26.30;;;6.23;;
16199;SDS011;8207;52.494;4.654;2022-12-29T06:29:34;36.63;;;6.93;;
16199;SDS011;8207;52.494;4.654;2022-12-29T06:32:02;29.20;;;4.80;;
16199;SDS011;8207;52.494;4.654;2022-12-29T06:34:29;32.90;;;5.83;;
16199;SDS011;8207;52.494;4.654;2022-12-29T06:36:56;30.53;;;5.97;;
16199;SDS011;8207;52.494;4.654;2022-12-29T06:39:23;22.50;;;4.93;;
16199;SDS011;8207;52.494;4.654;2022-12-29T06:41:51;31.50;;;5.60;;
16199;SDS011;8207;52.494;4.654;2022-12-29T06:44:20;29.40;;;6.77;;
16199;SDS011;8207;52.494;4.654;2022-12-29T06:46:48;30.43;;;6.80;;
16199;SDS011;8207;52.494;4.654;2022-12-29T06:49:15;35.63;;;6.20;;
16199;SDS011;8207;52.494;4.654;2022-12-29T06:51:42;34.27;;;7.57;;
16199;SDS011;8207;52.494;4.654;2022-12-29T06:54:09;42.93;;;6.67;;
16199;SDS011;8207;52.494;4.654;2022-12-29T06:56:36;31.43;;;6.53;;
16199;SDS011;8207;52.494;4.654;2022-12-29T06:59:02;26.50;;;6.90;;
16199;SDS011;8207;52.494;4.654;2022-12-29T07:01:31;30.67;;;6.47;;
16199;SDS011;8207;52.494;4.654;2022-12-29T07:03:59;45.00;;;8.47;;
16199;SDS011;8207;52.494;4.654;2022-12-29T07:06:26;34.10;;;8.77;;
16199;SDS011;8207;52.494;4.654;2022-12-29T07:08:53;35.37;;;6.73;;
16199;SDS011;8207;52.494;4.654;2022-12-29T07:11:22;44.57;;;7.87;;
16199;SDS011;8207;52.494;4.654;2022-12-29T07:13:49;26.90;;;6.60;;
16199;SDS011;8207;52.494;4.654;2022-12-29T07:16:17;34.73;;;7.30;;
16199;SDS011;8207;52.494;4.654;2022-12-29T07:18:45;31.20;;;6.13;;
16199;SDS011;8207;52.494;4.654;2022-12-29T07:21:12;44.37;;;7.70;;
16199;SDS011;8207;52.494;4.654;2022-12-29T07:23:39;37.17;;;7.93;;
16199;SDS011;8207;52.494;4.654;2022-12-29T07:26:06;40.27;;;8.90;;
16199;SDS011;8207;52.494;4.654;2022-12-29T07:28:35;39.27;;;7.43;;
16199;SDS011;8207;52.494;4.654;2022-12-29T07:31:04;34.07;;;6.70;;
16199;SDS011;8207;52.494;4.654;2022-12-29T07:33:31;40.80;;;8.20;;
16199;SDS011;8207;52.494;4.654;2022-12-29T07:36:00;30.47;;;8.00;;
16199;SDS011;8207;52.494;4.654;2022-12-29T07:38:27;31.67;;;7.00;;
16199;SDS011;8207;52.494;4.654;2022-12-29T07:40:56;34.93;;;6.67;;
16199;SDS011;8207;52.494;4.654;2022-12-29T07:43:24;30.67;;;6.77;;
16199;SDS011;8207;52.494;4.654;2022-12-29T07:45:51;33.40;;;6.90;;
16199;SDS011;8207;52.494;4.654;2022-12-29T07:48:18;42.00;;;8.50;;
16199;SDS011;8207;52.494;4.654;2022-12-29T07:50:45;33.53;;;8.07;;
16199;SDS011;8207;52.494;4.654;2022-12-29T07:53:13;34.87;;;6.80;;
16199;SDS011;8207;52.494;4.654;2022-12-29T07:55:40;36.80;;;7.00;;
16199;SDS011;8207;52.494;4.654;2022-12-29T07:58:07;43.00;;;8.60;;
16199;SDS011;8207;52.494;4.654;2022-12-29T08:00:34;31.53;;;7.07;;
16199;SDS011;8207;52.494;4.654;2022-12-29T08:03:03;39.90;;;7.83;;
16199;SDS011;8207;52.494;4.654;2022-12-29T08:05:30;32.07;;;7.63;;
16199;SDS011;8207;52.494;4.654;2022-12-29T08:07:57;31.93;;;7.90;;
16199;SDS011;8207;52.494;4.654;2022-12-29T08:10:26;39.30;;;6.97;;
16199;SDS011;8207;52.494;4.654;2022-12-29T08:12:53;35.07;;;7.40;;
16199;SDS011;8207;52.494;4.654;2022-12-29T08:15:19;37.63;;;6.27;;
16199;SDS011;8207;52.494;4.654;2022-12-29T08:17:46;25.13;;;6.73;;
16199;SDS011;8207;52.494;4.654;2022-12-29T08:20:13;35.93;;;7.23;;
16199;SDS011;8207;52.494;4.654;2022-12-29T08:22:41;32.70;;;7.10;;
16199;SDS011;8207;52.494;4.654;2022-12-29T08:25:08;27.33;;;6.00;;
16199;SDS011;8207;52.494;4.654;2022-12-29T08:27:37;32.63;;;6.63;;
16199;SDS011;8207;52.494;4.654;2022-12-29T08:30:04;26.20;;;6.00;;
16199;SDS011;8207;52.494;4.654;2022-12-29T08:32:31;32.23;;;6.03;;
16199;SDS011;8207;52.494;4.654;2022-12-29T08:34:59;27.90;;;6.50;;
16199;SDS011;8207;52.494;4.654;2022-12-29T08:37:26;24.43;;;5.67;;
16199;SDS011;8207;52.494;4.654;2022-12-29T08:39:53;27.53;;;7.00;;
16199;SDS011;8207;52.494;4.654;2022-12-29T08:42:19;28.77;;;6.70;;
16199;SDS011;8207;52.494;4.654;2022-12-29T08:44:48;32.90;;;5.80;;
16199;SDS011;8207;52.494;4.654;2022-12-29T08:47:15;34.93;;;6.33;;
16199;SDS011;8207;52.494;4.654;2022-12-29T08:49:41;33.23;;;6.00;;
16199;SDS011;8207;52.494;4.654;2022-12-29T08:52:08;38.27;;;7.73;;
16199;SDS011;8207;52.494;4.654;2022-12-29T08:54:35;31.83;;;6.40;;
16199;SDS011;8207;52.494;4.654;2022-12-29T08:57:02;33.63;;;8.13;;
16199;SDS011;8207;52.494;4.654;2022-12-29T08:59:29;36.33;;;6.60;;
16199;SDS011;8207;52.494;4.654;2022-12-29T09:01:57;36.50;;;6.73;;
16199;SDS011;8207;52.494;4.654;2022-12-29T09:04:25;33.93;;;6.50;;
16199;SDS011;8207;52.494;4.654;2022-12-29T09:06:52;37.30;;;7.50;;
16199;SDS011;8207;52.494;4.654;2022-12-29T09:09:19;33.20;;;9.43;;
16199;SDS011;8207;52.494;4.654;2022-12-29T09:11:46;37.63;;;7.00;;
16199;SDS011;8207;52.494;4.654;2022-12-29T09:14:13;49.20;;;9.17;;
16199;SDS011;8207;52.494;4.654;2022-12-29T09:16:40;40.67;;;9.00;;
16199;SDS011;8207;52.494;4.654;2022-12-29T09:19:26;34.07;;;8.87;;
16199;SDS011;8207;52.494;4.654;2022-12-29T09:21:53;37.57;;;9.47;;
16199;SDS011;8207;52.494;4.654;2022-12-29T09:24:20;33.87;;;8.30;;
16199;SDS011;8207;52.494;4.654;2022-12-29T09:26:48;41.80;;;7.80;;
16199;SDS011;8207;52.494;4.654;2022-12-29T09:29:20;46.63;;;9.40;;
16199;SDS011;8207;52.494;4.654;2022-12-29T09:31:52;38.33;;;9.50;;
16199;SDS011;8207;52.494;4.654;2022-12-29T09:34:31;45.73;;;8.70;;
16199;SDS011;8207;52.494;4.654;2022-12-29T09:37:04;48.63;;;9.33;;
16199;SDS011;8207;52.494;4.654;2022-12-29T09:39:32;43.10;;;9.70;;
16199;SDS011;8207;52.494;4.654;2022-12-29T09:42:06;54.33;;;9.33;;
16199;SDS011;8207;52.494;4.654;2022-12-29T09:44:51;55.73;;;10.17;;
16199;SDS011;8207;52.494;4.654;2022-12-29T09:47:27;47.57;;;10.23;;
16199;SDS011;8207;52.494;4.654;2022-12-29T09:49:58;47.03;;;10.47;;
16199;SDS011;8207;52.494;4.654;2022-12-29T09:52:30;38.03;;;9.13;;
16199;SDS011;8207;52.494;4.654;2022-12-29T09:55:03;53.23;;;10.17;;
16199;SDS011;8207;52.494;4.654;2022-12-29T09:57:35;51.93;;;10.90;;
16199;SDS011;8207;52.494;4.654;2022-12-29T10:00:11;47.33;;;9.63;;
16199;SDS011;8207;52.494;4.654;2022-12-29T10:02:42;49.83;;;10.37;;
16199;SDS011;8207;52.494;4.654;2022-12-29T10:05:16;42.97;;;9.77;;
16199;SDS011;8207;52.494;4.654;2022-12-29T10:07:55;31.00;;;7.97;;
16199;SDS011;8207;52.494;4.654;2022-12-29T10:10:34;25.67;;;7.83;;
16199;SDS011;8207;52.494;4.654;2022-12-29T10:13:08;23.10;;;5.27;;
16199;SDS011;8207;52.494;4.654;2022-12-29T10:15:49;30.43;;;6.53;;
16199;SDS011;8207;52.494;4.654;2022-12-29T10:21:24;34.70;;;8.13;;
16199;SDS011;8207;52.494;4.654;2022-12-29T10:23:57;30.67;;;6.80;;
16199;SDS011;8207;52.494;4.654;2022-12-29T10:26:29;20.07;;;4.97;;
16199;SDS011;8207;52.494;4.654;2022-12-29T10:29:03;23.40;;;5.40;;
16199;SDS011;8207;52.494;4.654;2022-12-29T10:31:32;22.40;;;5.13;;
16199;SDS011;8207;52.494;4.654;2022-12-29T10:34:06;18.37;;;5.70;;
16199;SDS011;8207;52.494;4.654;2022-12-29T10:36:44;21.90;;;5.43;;
16199;SDS011;8207;52.494;4.654;2022-12-29T10:39:16;18.37;;;4.73;;
16199;SDS011;8207;52.494;4.654;2022-12-29T10:41:48;20.43;;;4.50;;
16199;SDS011;8207;52.494;4.654;2022-12-29T10:44:19;21.93;;;5.23;;
16199;SDS011;8207;52.494;4.654;2022-12-29T10:46:51;24.83;;;6.20;;
16199;SDS011;8207;52.494;4.654;2022-12-29T10:49:21;27.77;;;6.57;;
16199;SDS011;8207;52.494;4.654;2022-12-29T10:51:54;21.67;;;5.80;;
16199;SDS011;8207;52.494;4.654;2022-12-29T10:54:26;24.50;;;6.47;;
16199;SDS011;8207;52.494;4.654;2022-12-29T10:56:59;25.80;;;6.33;;
16199;SDS011;8207;52.494;4.654;2022-12-29T10:59:30;19.07;;;5.90;;
16199;SDS011;8207;52.494;4.654;2022-12-29T11:02:02;23.03;;;6.30;;
16199;SDS011;8207;52.494;4.654;2022-12-29T11:04:48;24.87;;;6.70;;
16199;SDS011;8207;52.494;4.654;2022-12-29T11:07:31;23.07;;;5.80;;
16199;SDS011;8207;52.494;4.654;2022-12-29T11:12:54;16.37;;;5.07;;
16199;SDS011;8207;52.494;4.654;2022-12-29T11:15:23;17.23;;;5.40;;
16199;SDS011;8207;52.494;4.654;2022-12-29T11:17:51;16.37;;;4.80;;
16199;SDS011;8207;52.494;4.654;2022-12-29T11:20:24;20.83;;;6.07;;
16199;SDS011;8207;52.494;4.654;2022-12-29T11:22:57;21.97;;;5.23;;
16199;SDS011;8207;52.494;4.654;2022-12-29T11:25:24;20.43;;;4.33;;
16199;SDS011;8207;52.494;4.654;2022-12-29T11:27:54;18.23;;;4.57;;
16199;SDS011;8207;52.494;4.654;2022-12-29T11:30:23;15.33;;;3.90;;
16199;SDS011;8207;52.494;4.654;2022-12-29T11:32:52;14.73;;;3.83;;
16199;SDS011;8207;52.494;4.654;2022-12-29T11:35:29;12.50;;;4.10;;
16199;SDS011;8207;52.494;4.654;2022-12-29T11:37:59;20.20;;;5.00;;
16199;SDS011;8207;52.494;4.654;2022-12-29T11:40:27;14.67;;;3.50;;
16199;SDS011;8207;52.494;4.654;2022-12-29T11:42:55;17.90;;;3.40;;
16199;SDS011;8207;52.494;4.654;2022-12-29T11:45:25;14.30;;;3.13;;
16199;SDS011;8207;52.494;4.654;2022-12-29T11:47:54;25.30;;;3.83;;
16199;SDS011;8207;52.494;4.654;2022-12-29T11:50:24;12.90;;;3.37;;
16199;SDS011;8207;52.494;4.654;2022-12-29T11:52:58;16.57;;;3.27;;
16199;SDS011;8207;52.494;4.654;2022-12-29T11:55:27;17.97;;;3.73;;
16199;SDS011;8207;52.494;4.654;2022-12-29T11:57:56;16.17;;;3.37;;
16199;SDS011;8207;52.494;4.654;2022-12-29T12:00:26;28.33;;;4.90;;
16199;SDS011;8207;52.494;4.654;2022-12-29T12:02:56;22.70;;;5.60;;
16199;SDS011;8207;52.494;4.654;2022-12-29T12:05:32;26.40;;;5.17;;
16199;SDS011;8207;52.494;4.654;2022-12-29T12:08:07;23.83;;;5.33;;
16199;SDS011;8207;52.494;4.654;2022-12-29T12:10:39;21.10;;;5.53;;
16199;SDS011;8207;52.494;4.654;2022-12-29T12:13:20;24.87;;;5.50;;
16199;SDS011;8207;52.494;4.654;2022-12-29T12:15:52;22.87;;;5.30;;
16199;SDS011;8207;52.494;4.654;2022-12-29T12:18:30;26.97;;;5.50;;
16199;SDS011;8207;52.494;4.654;2022-12-29T12:21:05;22.03;;;5.77;;
16199;SDS011;8207;52.494;4.654;2022-12-29T12:23:43;24.27;;;5.57;;
16199;SDS011;8207;52.494;4.654;2022-12-29T12:26:21;22.23;;;4.70;;
16199;SDS011;8207;52.494;4.654;2022-12-29T12:28:56;19.33;;;5.10;;
16199;SDS011;8207;52.494;4.654;2022-12-29T12:31:39;23.23;;;4.77;;
16199;SDS011;8207;52.494;4.654;2022-12-29T12:34:13;19.90;;;4.03;;
16199;SDS011;8207;52.494;4.654;2022-12-29T12:39:49;20.73;;;4.73;;
16199;SDS011;8207;52.494;4.654;2022-12-29T12:42:34;24.47;;;5.43;;
16199;SDS011;8207;52.494;4.654;2022-12-29T12:48:19;13.37;;;3.57;;
16199;SDS011;8207;52.494;4.654;2022-12-29T12:51:09;15.13;;;3.13;;
16199;SDS011;8207;52.494;4.654;2022-12-29T12:53:45;22.97;;;4.43;;
16199;SDS011;8207;52.494;4.654;2022-12-29T12:56:26;19.70;;;4.97;;
16199;SDS011;8207;52.494;4.654;2022-12-29T12:59:11;17.23;;;3.93;;
16199;SDS011;8207;52.494;4.654;2022-12-29T13:02:00;12.83;;;3.73;;
16199;SDS011;8207;52.494;4.654;2022-12-29T13:04:42;15.07;;;3.23;;
16199;SDS011;8207;52.494;4.654;2022-12-29T13:07:27;10.67;;;2.87;;
16199;SDS011;8207;52.494;4.654;2022-12-29T13:10:12;17.07;;;3.60;;
16199;SDS011;8207;52.494;4.654;2022-12-29T13:12:51;20.40;;;3.50;;
16199;SDS011;8207;52.494;4.654;2022-12-29T13:15:30;15.33;;;3.43;;
16199;SDS011;8207;52.494;4.654;2022-12-29T13:18:10;22.47;;;3.90;;
16199;SDS011;8207;52.494;4.654;2022-12-29T13:20:44;20.20;;;3.97;;
16199;SDS011;8207;52.494;4.654;2022-12-29T13:23:16;16.13;;;3.67;;
16199;SDS011;8207;52.494;4.654;2022-12-29T13:25:54;21.70;;;3.93;;
16199;SDS011;8207;52.494;4.654;2022-12-29T13:28:30;22.60;;;3.93;;
16199;SDS011;8207;52.494;4.654;2022-12-29T13:31:04;21.40;;;5.47;;
16199;SDS011;8207;52.494;4.654;2022-12-29T13:33:40;14.90;;;3.50;;
16199;SDS011;8207;52.494;4.654;2022-12-29T13:36:18;18.10;;;4.07;;
16199;SDS011;8207;52.494;4.654;2022-12-29T13:38:50;13.93;;;5.47;;
16199;SDS011;8207;52.494;4.654;2022-12-29T13:41:25;21.03;;;5.07;;
16199;SDS011;8207;52.494;4.654;2022-12-29T13:43:58;19.60;;;4.33;;
16199;SDS011;8207;52.494;4.654;2022-12-29T13:46:29;20.17;;;4.27;;
16199;SDS011;8207;52.494;4.654;2022-12-29T13:49:01;16.33;;;3.70;;
16199;SDS011;8207;52.494;4.654;2022-12-29T13:51:33;19.10;;;4.37;;
16199;SDS011;8207;52.494;4.654;2022-12-29T13:54:03;31.17;;;4.20;;
16199;SDS011;8207;52.494;4.654;2022-12-29T13:56:38;16.80;;;3.97;;
16199;SDS011;8207;52.494;4.654;2022-12-29T13:59:11;20.57;;;4.23;;
16199;SDS011;8207;52.494;4.654;2022-12-29T14:01:47;23.33;;;4.77;;
16199;SDS011;8207;52.494;4.654;2022-12-29T14:04:21;20.77;;;4.63;;
16199;SDS011;8207;52.494;4.654;2022-12-29T14:06:58;21.70;;;4.30;;
16199;SDS011;8207;52.494;4.654;2022-12-29T14:09:39;20.87;;;4.60;;
16199;SDS011;8207;52.494;4.654;2022-12-29T14:12:21;18.03;;;5.10;;
16199;SDS011;8207;52.494;4.654;2022-12-29T14:15:03;21.07;;;4.97;;
16199;SDS011;8207;52.494;4.654;2022-12-29T14:18:09;21.97;;;4.73;;
16199;SDS011;8207;52.494;4.654;2022-12-29T14:20:46;17.93;;;4.80;;
16199;SDS011;8207;52.494;4.654;2022-12-29T14:23:25;18.10;;;4.00;;
16199;SDS011;8207;52.494;4.654;2022-12-29T14:28:42;25.80;;;4.80;;
16199;SDS011;8207;52.494;4.654;2022-12-29T14:36:56;25.17;;;4.73;;
16199;SDS011;8207;52.494;4.654;2022-12-29T14:39:32;23.43;;;4.80;;
16199;SDS011;8207;52.494;4.654;2022-12-29T14:42:04;20.03;;;4.93;;
16199;SDS011;8207;52.494;4.654;2022-12-29T14:44:33;30.67;;;4.80;;
16199;SDS011;8207;52.494;4.654;2022-12-29T14:47:03;27.17;;;5.50;;
16199;SDS011;8207;52.494;4.654;2022-12-29T14:49:39;22.97;;;5.00;;
16199;SDS011;8207;52.494;4.654;2022-12-29T14:52:13;32.57;;;7.20;;
16199;SDS011;8207;52.494;4.654;2022-12-29T14:54:49;30.30;;;6.07;;
16199;SDS011;8207;52.494;4.654;2022-12-29T14:57:19;25.77;;;4.97;;
16199;SDS011;8207;52.494;4.654;2022-12-29T15:00:14;25.23;;;5.67;;
16199;SDS011;8207;52.494;4.654;2022-12-29T15:02:47;25.53;;;4.47;;
16199;SDS011;8207;52.494;4.654;2022-12-29T15:05:32;22.17;;;5.23;;
16199;SDS011;8207;52.494;4.654;2022-12-29T15:08:03;34.67;;;7.07;;
16199;SDS011;8207;52.494;4.654;2022-12-29T15:10:33;25.97;;;5.27;;
16199;SDS011;8207;52.494;4.654;2022-12-29T15:13:05;26.63;;;5.37;;
16199;SDS011;8207;52.494;4.654;2022-12-29T15:15:39;26.43;;;6.10;;
16199;SDS011;8207;52.494;4.654;2022-12-29T15:18:22;32.60;;;5.90;;
16199;SDS011;8207;52.494;4.654;2022-12-29T15:20:52;34.80;;;6.73;;
16199;SDS011;8207;52.494;4.654;2022-12-29T15:23:21;25.00;;;5.50;;
16199;SDS011;8207;52.494;4.654;2022-12-29T15:25:53;26.33;;;6.17;;
16199;SDS011;8207;52.494;4.654;2022-12-29T15:28:21;31.23;;;7.40;;
16199;SDS011;8207;52.494;4.654;2022-12-29T15:30:53;32.10;;;6.90;;
16199;SDS011;8207;52.494;4.654;2022-12-29T15:33:24;30.50;;;6.90;;
16199;SDS011;8207;52.494;4.654;2022-12-29T15:35:54;29.80;;;7.37;;
16199;SDS011;8207;52.494;4.654;2022-12-29T15:38:22;36.30;;;10.83;;
16199;SDS011;8207;52.494;4.654;2022-12-29T15:40:53;26.97;;;6.27;;